createdAt,value
2023-02-04T00:00:16.467Z,-0.10
2023-02-04T00:02:43.449Z,-0.10
2023-02-04T00:05:11.205Z,-0.10
2023-02-04T00:07:51.622Z,-0.10
2023-02-04T00:10:27.455Z,-0.10
2023-02-04T00:12:54.509Z,-0.10
2023-02-04T00:15:21.433Z,-0.10
2023-02-04T00:17:48.405Z,0.00
2023-02-04T00:20:15.330Z,0.00
2023-02-04T00:22:42.357Z,0.00
2023-02-04T00:25:09.333Z,0.00
2023-02-04T00:27:36.382Z,0.00
2023-02-04T00:30:07.276Z,0.00
2023-02-04T00:32:34.404Z,0.00
2023-02-04T00:35:04.787Z,0.00
2023-02-04T00:37:32.467Z,0.00
2023-02-04T00:39:59.834Z,-0.10
2023-02-04T00:42:26.776Z,-0.10
2023-02-04T00:44:54.103Z,-0.10
2023-02-04T00:47:21.232Z,-0.10
2023-02-04T00:50:01.674Z,-0.10
2023-02-04T00:52:35.251Z,-0.10
2023-02-04T00:55:02.804Z,-0.10
2023-02-04T00:57:29.717Z,-0.10
2023-02-04T00:59:56.634Z,-0.10
2023-02-04T01:02:23.708Z,-0.10
2023-02-04T01:04:51.866Z,-0.10
2023-02-04T01:07:19.028Z,-0.10
2023-02-04T01:09:45.959Z,-0.10
2023-02-04T01:12:12.866Z,-0.10
2023-02-04T01:14:39.841Z,-0.10
2023-02-04T01:17:06.917Z,-0.10
2023-02-04T01:19:33.887Z,-0.10
2023-02-04T01:22:00.828Z,-0.10
2023-02-04T01:24:28.158Z,-0.10
2023-02-04T01:27:13.953Z,-0.10
2023-02-04T01:29:40.987Z,-0.10
2023-02-04T01:32:07.992Z,-0.20
2023-02-04T01:34:34.929Z,-0.20
2023-02-04T01:37:02.670Z,-0.30
2023-02-04T01:39:29.722Z,-0.30
2023-02-04T01:41:58.024Z,-0.30
2023-02-04T01:44:25.910Z,-0.30
2023-02-04T01:46:53.003Z,-0.20
2023-02-04T01:49:20.147Z,-0.30
2023-02-04T01:51:47.182Z,-0.20
2023-02-04T01:54:14.467Z,-0.20
2023-02-04T01:56:51.795Z,-0.20
2023-02-04T01:59:26.343Z,-0.20
2023-02-04T02:01:54.597Z,-0.20
2023-02-04T02:04:32.025Z,-0.30
2023-02-04T02:07:03.826Z,-0.20
2023-02-04T02:09:31.960Z,-0.30
2023-02-04T02:11:59.011Z,-0.30
2023-02-04T02:14:26.420Z,-0.30
2023-02-04T02:16:55.732Z,-0.30
2023-02-04T02:19:36.688Z,-0.30
2023-02-04T02:22:19.010Z,-0.30
2023-02-04T02:24:47.046Z,-0.30
2023-02-04T02:27:14.076Z,-0.20
2023-02-04T02:29:41.628Z,-0.20
2023-02-04T02:32:10.963Z,-0.30
2023-02-04T02:34:39.490Z,-0.30
2023-02-04T02:37:07.121Z,-0.30
2023-02-04T02:39:34.088Z,-0.30
2023-02-04T02:42:01.042Z,-0.30
2023-02-04T02:44:28.210Z,-0.30
2023-02-04T02:46:55.447Z,-0.30
2023-02-04T02:49:22.701Z,-0.30
2023-02-04T02:51:49.979Z,-0.30
2023-02-04T02:54:27.360Z,-0.30
2023-02-04T02:56:56.849Z,-0.30
2023-02-04T02:59:24.529Z,-0.30
2023-02-04T03:01:54.896Z,-0.30
2023-02-04T03:04:23.564Z,-0.30
2023-02-04T03:06:51.005Z,-0.30
2023-02-04T03:09:18.163Z,-0.30
2023-02-04T03:11:47.856Z,-0.20
2023-02-04T03:14:15.109Z,-0.20
2023-02-04T03:16:42.141Z,-0.10
2023-02-04T03:19:09.156Z,-0.10
2023-02-04T03:21:36.414Z,-0.10
2023-02-04T03:24:04.228Z,0.00
2023-02-04T03:26:31.240Z,0.00
2023-02-04T03:28:59.058Z,0.00
2023-02-04T03:31:26.127Z,0.00
2023-02-04T03:33:53.126Z,0.00
2023-02-04T03:36:20.223Z,-0.10
2023-02-04T03:38:47.154Z,-0.10
2023-02-04T03:41:14.152Z,-0.10
2023-02-04T03:43:41.316Z,-0.10
2023-02-04T03:46:08.292Z,-0.20
2023-02-04T03:48:35.239Z,-0.20
2023-02-04T03:51:02.487Z,-0.20
2023-02-04T03:53:29.639Z,-0.20
2023-02-04T03:55:56.607Z,-0.20
2023-02-04T03:58:23.538Z,-0.30
2023-02-04T04:00:50.566Z,-0.40
2023-02-04T04:03:17.671Z,-0.50
2023-02-04T04:05:44.609Z,-0.50
2023-02-04T04:08:11.590Z,-0.50
2023-02-04T04:10:38.741Z,-0.50
2023-02-04T04:13:06.320Z,-0.50
2023-02-04T04:15:33.281Z,-0.60
2023-02-04T04:18:00.626Z,-0.60
2023-02-04T04:20:29.290Z,-0.50
2023-02-04T04:22:56.475Z,-0.50
2023-02-04T04:25:23.660Z,-0.50
2023-02-04T04:27:50.643Z,-0.50
2023-02-04T04:30:17.915Z,-0.50
2023-02-04T04:32:44.913Z,-0.50
2023-02-04T04:35:11.992Z,-0.50
2023-02-04T04:37:38.942Z,-0.50
2023-02-04T04:40:06.294Z,-0.50
2023-02-04T04:42:33.214Z,-0.40
2023-02-04T04:45:00.144Z,-0.40
2023-02-04T04:47:28.094Z,-0.40
2023-02-04T04:49:55.028Z,-0.40
2023-02-04T04:52:22.023Z,-0.40
2023-02-04T04:54:48.940Z,-0.50
2023-02-04T04:57:16.121Z,-0.50
2023-02-04T04:59:43.061Z,-0.50
2023-02-04T05:02:09.972Z,-0.50
2023-02-04T05:04:36.937Z,-0.50
2023-02-04T05:07:06.300Z,-0.50
2023-02-04T05:09:33.324Z,-0.50
2023-02-04T05:12:00.286Z,-0.50
2023-02-04T05:14:27.977Z,-0.50
2023-02-04T05:16:54.939Z,-0.60
2023-02-04T05:19:21.908Z,-0.60
2023-02-04T05:21:48.865Z,-0.60
2023-02-04T05:24:15.830Z,-0.70
2023-02-04T05:26:42.777Z,-0.70
2023-02-04T05:29:10.804Z,-0.80
2023-02-04T05:31:37.940Z,-0.70
2023-02-04T05:34:07.051Z,-0.70
2023-02-04T05:36:34.005Z,-0.70
2023-02-04T05:39:01.134Z,-0.70
2023-02-04T05:41:28.160Z,-0.70
2023-02-04T05:43:55.166Z,-0.70
2023-02-04T05:46:28.920Z,-0.70
2023-02-04T05:49:02.592Z,-0.70
2023-02-04T05:51:29.480Z,-0.70
2023-02-04T05:53:56.538Z,-0.60
2023-02-04T05:56:25.453Z,-0.70
2023-02-04T05:58:52.402Z,-0.60
2023-02-04T06:01:19.324Z,-0.70
2023-02-04T06:03:46.397Z,-0.60
2023-02-04T06:06:13.314Z,-0.60
2023-02-04T06:08:40.383Z,-0.60
2023-02-04T06:11:07.435Z,-0.60
2023-02-04T06:13:34.446Z,-0.60
2023-02-04T06:16:02.423Z,-0.50
2023-02-04T06:18:29.415Z,-0.50
2023-02-04T06:20:56.482Z,-0.50
2023-02-04T06:23:23.488Z,-0.50
2023-02-04T06:25:50.501Z,-0.50
2023-02-04T06:28:17.493Z,-0.50
2023-02-04T06:30:44.573Z,-0.50
2023-02-04T06:33:11.558Z,-0.50
2023-02-04T06:35:38.532Z,-0.50
2023-02-04T06:38:05.510Z,-0.50
2023-02-04T06:40:32.893Z,-0.50
2023-02-04T06:43:08.952Z,-0.50
2023-02-04T06:45:42.747Z,-0.60
2023-02-04T06:48:09.767Z,-0.60
2023-02-04T06:50:36.708Z,-0.60
2023-02-04T06:53:03.851Z,-0.50
2023-02-04T06:55:30.917Z,-0.50
2023-02-04T06:58:00.116Z,-0.50
2023-02-04T07:00:28.074Z,-0.50
2023-02-04T07:03:07.974Z,-0.50
2023-02-04T07:05:41.583Z,-0.50
2023-02-04T07:08:08.568Z,-0.40
2023-02-04T07:10:35.736Z,-0.40
2023-02-04T07:13:02.773Z,-0.40
2023-02-04T07:15:30.033Z,-0.30
2023-02-04T07:17:57.037Z,-0.40
2023-02-04T07:20:23.956Z,-0.40
2023-02-04T07:22:50.890Z,-0.40
2023-02-04T07:25:18.085Z,-0.30
2023-02-04T07:27:45.306Z,-0.30
2023-02-04T07:30:12.842Z,-0.40
2023-02-04T07:32:39.780Z,-0.30
2023-02-04T07:35:07.201Z,-0.30
2023-02-04T07:37:34.231Z,-0.30
2023-02-04T07:40:14.063Z,-0.30
2023-02-04T07:42:46.859Z,-0.30
2023-02-04T07:45:17.856Z,-0.30
2023-02-04T07:47:44.840Z,-0.20
2023-02-04T07:50:11.920Z,-0.30
2023-02-04T07:52:38.940Z,-0.30
2023-02-04T07:55:06.931Z,-0.30
2023-02-04T07:57:34.019Z,-0.30
2023-02-04T08:00:14.087Z,-0.30
2023-02-04T08:02:47.789Z,-0.40
2023-02-04T08:05:15.345Z,-0.50
2023-02-04T08:07:42.376Z,-0.50
2023-02-04T08:10:10.126Z,-0.50
2023-02-04T08:12:37.160Z,-0.50
2023-02-04T08:15:04.638Z,-0.40
2023-02-04T08:17:31.730Z,-0.50
2023-02-04T08:19:58.740Z,-0.50
2023-02-04T08:22:25.855Z,-0.50
2023-02-04T08:24:52.805Z,-0.50
2023-02-04T08:27:19.991Z,-0.50
2023-02-04T08:29:53.185Z,-0.40
2023-02-04T08:32:40.024Z,-0.40
2023-02-04T08:35:20.147Z,-0.20
2023-02-04T08:38:07.046Z,0.00
2023-02-04T08:40:50.174Z,0.10
2023-02-04T08:43:37.066Z,0.20
2023-02-04T08:46:17.348Z,0.40
2023-02-04T08:48:50.721Z,0.40
2023-02-04T08:51:17.667Z,0.30
2023-02-04T08:53:44.586Z,0.20
2023-02-04T08:56:20.590Z,0.20
2023-02-04T08:58:53.757Z,0.20
2023-02-04T09:01:20.830Z,0.30
2023-02-04T09:03:47.851Z,0.40
2023-02-04T09:06:14.804Z,0.50
2023-02-04T09:08:41.758Z,0.40
2023-02-04T09:11:11.341Z,0.30
2023-02-04T09:13:39.313Z,0.20
2023-02-04T09:16:06.720Z,0.20
2023-02-04T09:18:33.753Z,0.10
2023-02-04T09:21:00.951Z,0.10
2023-02-04T09:23:28.140Z,0.10
2023-02-04T09:25:55.066Z,0.10
2023-02-04T09:28:22.085Z,0.00
2023-02-04T09:30:49.125Z,-0.10
2023-02-04T09:33:17.123Z,-0.10
2023-02-04T09:35:44.777Z,0.00
2023-02-04T09:38:11.786Z,0.00
2023-02-04T09:40:42.326Z,0.00
2023-02-04T09:43:12.574Z,0.00
2023-02-04T09:45:39.646Z,0.00
2023-02-04T09:48:08.542Z,0.20
2023-02-04T09:50:38.550Z,0.40
2023-02-04T09:53:06.520Z,0.60
2023-02-04T09:55:35.000Z,0.80
2023-02-04T09:58:02.372Z,1.00
2023-02-04T10:00:30.692Z,1.20
2023-02-04T10:03:00.258Z,1.30
2023-02-04T10:05:34.336Z,1.10
2023-02-04T10:08:02.282Z,0.90
2023-02-04T10:10:30.994Z,0.70
2023-02-04T10:13:11.154Z,0.70
2023-02-04T10:15:45.370Z,0.60
2023-02-04T10:18:13.457Z,0.70
2023-02-04T10:20:40.386Z,0.60
2023-02-04T10:23:12.630Z,0.60
2023-02-04T10:25:40.030Z,0.60
2023-02-04T10:28:06.950Z,0.50
2023-02-04T10:30:41.589Z,0.30
2023-02-04T10:33:16.568Z,0.30
2023-02-04T10:35:45.126Z,0.30
2023-02-04T10:38:12.178Z,0.40
2023-02-04T10:40:39.155Z,0.30
2023-02-04T10:43:10.892Z,0.20
2023-02-04T10:45:38.392Z,0.20
2023-02-04T10:48:05.779Z,0.20
2023-02-04T10:50:33.203Z,0.30
2023-02-04T10:53:18.969Z,0.20
2023-02-04T10:55:46.899Z,0.20
2023-02-04T10:58:33.274Z,0.30
2023-02-04T11:01:16.432Z,0.40
2023-02-04T11:03:52.300Z,0.50
2023-02-04T11:06:23.397Z,0.40
2023-02-04T11:08:53.490Z,0.30
2023-02-04T11:11:22.723Z,0.30
2023-02-04T11:13:49.738Z,0.40
2023-02-04T11:16:27.269Z,0.40
2023-02-04T11:18:54.392Z,0.50
2023-02-04T11:21:27.668Z,0.60
2023-02-04T11:24:13.913Z,0.50
2023-02-04T11:26:51.751Z,0.40
2023-02-04T11:29:37.679Z,0.40
2023-02-04T11:32:26.324Z,0.40
2023-02-04T11:34:53.305Z,0.40
2023-02-04T11:37:37.455Z,0.50
2023-02-04T11:40:22.800Z,0.50
2023-02-04T11:42:52.369Z,0.60
2023-02-04T11:45:25.481Z,0.60
2023-02-04T11:47:52.580Z,0.60
2023-02-04T11:50:19.459Z,0.60
2023-02-04T11:52:46.546Z,0.50
2023-02-04T11:55:13.540Z,0.40
2023-02-04T11:57:41.199Z,0.40
2023-02-04T12:00:15.800Z,0.40
2023-02-04T12:02:56.397Z,0.50
2023-02-04T12:05:35.055Z,0.40
2023-02-04T12:08:11.935Z,0.50
2023-02-04T12:10:39.309Z,0.50
2023-02-04T12:13:13.306Z,0.50
2023-02-04T12:15:40.657Z,0.50
2023-02-04T12:18:09.237Z,0.60
2023-02-04T12:20:37.169Z,0.60
2023-02-04T12:23:04.695Z,0.70
2023-02-04T12:25:31.946Z,0.80
2023-02-04T12:27:59.037Z,0.90
2023-02-04T12:30:27.811Z,0.90
2023-02-04T12:32:54.856Z,0.90
2023-02-04T12:35:21.932Z,0.90
2023-02-04T12:38:02.273Z,0.90
2023-02-04T12:40:36.203Z,0.90
2023-02-04T12:43:03.961Z,0.80
2023-02-04T12:45:31.404Z,0.80
2023-02-04T12:47:58.706Z,0.70
2023-02-04T12:50:26.867Z,0.70
2023-02-04T12:52:54.837Z,0.70
2023-02-04T12:55:22.852Z,0.60
2023-02-04T12:57:50.073Z,0.50
2023-02-04T13:00:18.320Z,0.50
2023-02-04T13:02:45.730Z,0.40
2023-02-04T13:05:14.011Z,0.30
2023-02-04T13:07:41.486Z,0.20
2023-02-04T13:10:09.697Z,0.20
2023-02-04T13:12:36.724Z,0.20
2023-02-04T13:15:04.138Z,0.10
2023-02-04T13:17:31.170Z,0.10
2023-02-04T13:19:58.138Z,0.00
2023-02-04T13:22:25.221Z,0.00
2023-02-04T13:24:52.277Z,0.00
2023-02-04T13:27:19.278Z,0.00
2023-02-04T13:29:46.269Z,0.00
2023-02-04T13:32:26.330Z,-0.10
2023-02-04T13:35:00.145Z,-0.20
2023-02-04T13:37:41.397Z,-0.30
2023-02-04T13:40:21.473Z,-0.30
2023-02-04T13:43:08.458Z,-0.30
2023-02-04T13:45:47.606Z,-0.30
2023-02-04T13:48:15.192Z,-0.30
2023-02-04T13:50:42.249Z,-0.30
2023-02-04T13:53:09.298Z,-0.30
2023-02-04T13:55:36.236Z,-0.30
2023-02-04T13:58:03.256Z,-0.30
2023-02-04T14:00:30.385Z,-0.30
2023-02-04T14:02:57.713Z,-0.30
2023-02-04T14:05:31.529Z,-0.30
2023-02-04T14:08:18.398Z,-0.30
2023-02-04T14:10:58.500Z,-0.30
2023-02-04T14:13:45.355Z,-0.20
2023-02-04T14:16:25.566Z,-0.20
2023-02-04T14:19:13.366Z,-0.20
2023-02-04T14:21:54.198Z,-0.30
2023-02-04T14:24:41.385Z,-0.20
2023-02-04T14:27:23.588Z,-0.20
2023-02-04T14:30:17.425Z,-0.20
2023-02-04T14:33:06.370Z,-0.20
2023-02-04T14:35:41.379Z,-0.20
2023-02-04T14:38:08.440Z,-0.20
2023-02-04T14:40:35.518Z,-0.20
2023-02-04T14:43:02.673Z,-0.30
2023-02-04T14:45:29.709Z,-0.30
2023-02-04T14:47:59.476Z,-0.30
2023-02-04T14:50:28.711Z,-0.30
2023-02-04T14:52:56.986Z,-0.30
2023-02-04T14:55:24.313Z,-0.30
2023-02-04T14:57:51.292Z,-0.40
2023-02-04T15:00:18.482Z,-0.40
2023-02-04T15:02:52.563Z,-0.40
2023-02-04T15:05:26.176Z,-0.40
2023-02-04T15:07:53.110Z,-0.40
2023-02-04T15:10:20.171Z,-0.40
2023-02-04T15:12:47.360Z,-0.40
2023-02-04T15:15:14.295Z,-0.40
2023-02-04T15:17:41.322Z,-0.40
2023-02-04T15:20:08.856Z,-0.30
2023-02-04T15:22:42.517Z,-0.40
2023-02-04T15:25:16.158Z,-0.40
2023-02-04T15:27:43.075Z,-0.40
2023-02-04T15:30:10.329Z,-0.40
2023-02-04T15:32:37.846Z,-0.40
2023-02-04T15:35:04.992Z,-0.40
2023-02-04T15:37:32.573Z,-0.40
2023-02-04T15:40:00.868Z,-0.30
2023-02-04T15:42:27.889Z,-0.30
2023-02-04T15:44:57.805Z,-0.30
2023-02-04T15:47:24.934Z,-0.30
2023-02-04T15:49:52.082Z,-0.30
2023-02-04T15:52:24.496Z,-0.40
2023-02-04T15:54:52.614Z,-0.40
2023-02-04T15:57:19.510Z,-0.30
2023-02-04T15:59:48.356Z,-0.40
2023-02-04T16:02:15.727Z,-0.40
2023-02-04T16:04:45.307Z,-0.40
2023-02-04T16:07:25.495Z,-0.40
2023-02-04T16:09:59.250Z,-0.50
2023-02-04T16:12:26.209Z,-0.50
2023-02-04T16:14:53.173Z,-0.50
2023-02-04T16:17:20.082Z,-0.50
2023-02-04T16:19:47.040Z,-0.60
2023-02-04T16:22:14.212Z,-0.50
2023-02-04T16:24:41.497Z,-0.50
2023-02-04T16:27:08.613Z,-0.50
2023-02-04T16:29:35.768Z,-0.50
2023-02-04T16:32:02.702Z,-0.50
2023-02-04T16:34:29.646Z,-0.50
2023-02-04T16:36:56.803Z,-0.60
2023-02-04T16:39:26.089Z,-0.60
2023-02-04T16:41:53.162Z,-0.60
2023-02-04T16:44:20.213Z,-0.60
2023-02-04T16:46:49.160Z,-0.60
2023-02-04T16:49:16.816Z,-0.60
2023-02-04T16:51:43.790Z,-0.60
2023-02-04T16:54:11.103Z,-0.70
2023-02-04T16:56:38.000Z,-0.60
2023-02-04T16:59:05.011Z,-0.60
2023-02-04T17:01:32.057Z,-0.60
2023-02-04T17:03:59.363Z,-0.60
2023-02-04T17:06:39.618Z,-0.60
2023-02-04T17:09:14.371Z,-0.60
2023-02-04T17:11:41.289Z,-0.60
2023-02-04T17:14:10.006Z,-0.60
2023-02-04T17:16:37.199Z,-0.60
2023-02-04T17:19:06.933Z,-0.50
2023-02-04T17:21:33.990Z,-0.50
2023-02-04T17:24:04.373Z,-0.50
2023-02-04T17:26:37.249Z,-0.50
2023-02-04T17:29:08.298Z,-0.50
2023-02-04T17:31:35.698Z,-0.40
2023-02-04T17:34:03.384Z,-0.40
2023-02-04T17:36:31.248Z,-0.40
2023-02-04T17:38:58.367Z,-0.40
2023-02-04T17:41:25.848Z,-0.40
2023-02-04T17:43:53.059Z,-0.40
2023-02-04T17:46:20.279Z,-0.30
2023-02-04T17:48:47.274Z,-0.30
2023-02-04T17:51:14.332Z,-0.30
2023-02-04T17:53:41.456Z,-0.30
2023-02-04T17:56:12.295Z,-0.30
2023-02-04T17:58:39.809Z,-0.30
2023-02-04T18:01:11.528Z,-0.30
2023-02-04T18:03:38.965Z,-0.40
2023-02-04T18:06:22.782Z,-0.30
2023-02-04T18:09:08.605Z,-0.40
2023-02-04T18:11:48.728Z,-0.40
2023-02-04T18:14:27.040Z,-0.40
2023-02-04T18:16:56.623Z,-0.40
2023-02-04T18:19:29.095Z,-0.50
2023-02-04T18:21:58.140Z,-0.50
2023-02-04T18:24:34.025Z,-0.50
2023-02-04T18:27:04.712Z,-0.50
2023-02-04T18:29:38.626Z,-0.60
2023-02-04T18:32:08.937Z,-0.60
2023-02-04T18:34:40.690Z,-0.60
2023-02-04T18:37:26.497Z,-0.60
2023-02-04T18:39:57.748Z,-0.50
2023-02-04T18:42:26.182Z,-0.50
2023-02-04T18:44:55.113Z,-0.50
2023-02-04T18:47:31.670Z,-0.50
2023-02-04T18:50:16.267Z,-0.50
2023-02-04T18:52:43.896Z,-0.50
2023-02-04T18:55:18.422Z,-0.50
2023-02-04T18:57:45.463Z,-0.50
2023-02-04T19:00:14.554Z,-0.50
2023-02-04T19:02:49.360Z,-0.60
2023-02-04T19:05:22.357Z,-0.60
2023-02-04T19:07:51.375Z,-0.60
2023-02-04T19:10:34.120Z,-0.70
2023-02-04T19:13:15.874Z,-0.80
2023-02-04T19:15:43.481Z,-0.90
2023-02-04T19:18:24.820Z,-0.90
2023-02-04T19:20:52.037Z,-1.00
2023-02-04T19:23:21.198Z,-1.10
2023-02-04T19:25:49.255Z,-1.10
2023-02-04T19:28:19.312Z,-1.10
2023-02-04T19:30:50.891Z,-1.00
2023-02-04T19:35:48.102Z,-1.10
2023-02-04T19:38:24.276Z,-1.10
2023-02-04T19:40:52.193Z,-1.10
2023-02-04T19:43:37.410Z,-1.10
2023-02-04T19:46:18.594Z,-1.20
2023-02-04T19:48:46.472Z,-1.10
2023-02-04T19:51:16.453Z,-1.20
2023-02-04T19:53:45.659Z,-1.20
2023-02-04T19:56:31.435Z,-1.20
2023-02-04T19:58:59.419Z,-1.20
2023-02-04T20:01:26.603Z,-1.30
2023-02-04T20:04:07.789Z,-1.30
2023-02-04T20:06:43.240Z,-1.40
2023-02-04T20:09:13.206Z,-1.50
2023-02-04T20:11:43.599Z,-1.50
2023-02-04T20:14:10.603Z,-1.50
2023-02-04T20:16:46.743Z,-1.60
2023-02-04T20:19:13.772Z,-1.60
2023-02-04T20:21:40.697Z,-1.60
2023-02-04T20:24:13.147Z,-1.60
2023-02-04T20:26:40.166Z,-1.70
2023-02-04T20:29:17.500Z,-1.70
2023-02-04T20:31:44.546Z,-1.70
2023-02-04T20:34:15.393Z,-1.70
2023-02-04T20:36:49.725Z,-1.70
2023-02-04T20:39:30.006Z,-1.80
2023-02-04T20:42:24.378Z,-1.80
2023-02-04T20:44:51.770Z,-1.80
2023-02-04T20:47:19.014Z,-1.80
2023-02-04T20:49:58.434Z,-1.80
2023-02-04T20:52:41.389Z,-1.80
2023-02-04T20:55:26.024Z,-1.80
2023-02-04T20:57:54.268Z,-1.80
2023-02-04T21:00:28.347Z,-1.90
2023-02-04T21:03:37.758Z,-1.90
2023-02-04T21:06:22.190Z,-1.90
2023-02-04T21:08:51.022Z,-1.90
2023-02-04T21:11:18.017Z,-2.00
2023-02-04T21:13:45.115Z,-2.00
2023-02-04T21:16:12.060Z,-2.00
2023-02-04T21:18:41.670Z,-2.00
2023-02-04T21:21:20.415Z,-2.00
2023-02-04T21:23:47.413Z,-2.00
2023-02-04T21:26:14.396Z,-2.00
2023-02-04T21:28:41.426Z,-2.00
2023-02-04T21:31:09.985Z,-1.90
2023-02-04T21:33:37.061Z,-1.90
2023-02-04T21:36:04.586Z,-1.90
2023-02-04T21:38:31.642Z,-1.90
2023-02-04T21:40:58.561Z,-2.00
2023-02-04T21:43:25.530Z,-2.00
2023-02-04T21:45:52.548Z,-2.00
2023-02-04T21:48:19.520Z,-2.00
2023-02-04T21:50:46.417Z,-2.00
2023-02-04T21:53:13.446Z,-2.00
2023-02-04T21:55:40.444Z,-2.10
2023-02-04T21:58:07.689Z,-2.00
2023-02-04T22:00:47.817Z,-2.10
2023-02-04T22:03:23.975Z,-2.10
2023-02-04T22:05:50.915Z,-2.00
2023-02-04T22:08:17.954Z,-2.10
2023-02-04T22:10:44.976Z,-2.10
2023-02-04T22:13:30.547Z,-2.10
2023-02-04T22:15:57.607Z,-2.10
2023-02-04T22:18:24.505Z,-2.10
2023-02-04T22:20:51.457Z,-2.10
2023-02-04T22:23:18.436Z,-2.10
2023-02-04T22:25:47.895Z,-2.10
2023-02-04T22:28:14.870Z,-2.10
2023-02-04T22:30:42.001Z,-2.10
2023-02-04T22:33:09.494Z,-2.20
2023-02-04T22:35:37.693Z,-2.20
2023-02-04T22:38:04.653Z,-2.20
2023-02-04T22:40:31.673Z,-2.20
2023-02-04T22:42:58.600Z,-2.30
2023-02-04T22:45:25.613Z,-2.30
2023-02-04T22:47:52.549Z,-2.20
2023-02-04T22:50:19.969Z,-2.30
2023-02-04T22:52:48.106Z,-2.30
2023-02-04T22:55:15.181Z,-2.30
2023-02-04T22:57:42.118Z,-2.30
2023-02-04T23:00:19.104Z,-2.30
2023-02-04T23:02:46.139Z,-2.20
2023-02-04T23:05:13.048Z,-2.20
2023-02-04T23:07:40.015Z,-2.20
2023-02-04T23:10:13.990Z,-2.20
2023-02-04T23:13:00.986Z,-2.20
2023-02-04T23:15:27.906Z,-2.30
2023-02-04T23:17:54.800Z,-2.20
2023-02-04T23:20:21.708Z,-2.30
2023-02-04T23:22:48.634Z,-2.20
2023-02-04T23:25:15.582Z,-2.10
2023-02-04T23:27:42.858Z,-2.10
2023-02-04T23:30:10.738Z,-2.00
2023-02-04T23:32:37.932Z,-1.90
2023-02-04T23:35:05.232Z,-1.90
2023-02-04T23:37:32.417Z,-1.90
2023-02-04T23:39:59.347Z,-2.00
2023-02-04T23:42:26.656Z,-2.10
2023-02-04T23:44:53.562Z,-2.10
2023-02-04T23:47:20.506Z,-2.10
2023-02-04T23:49:47.508Z,-2.10
2023-02-04T23:52:14.464Z,-2.10
2023-02-04T23:54:41.831Z,-2.10
2023-02-04T23:57:11.174Z,-2.10
2023-02-04T23:59:43.844Z,-2.00
